Time;durP1;ratioP1;P1;durP2;ratioP2;P2;SDS_P1;SDS_P2;PMS_P1;PMS_P2;Temp;Humidity;BMP_temperature;BMP_pressure;BME280_temperature;BME280_humidity;BME280_pressure;Samples;Min_cycle;Max_cycle;Signal;HPM_P1;HPM_P2
2021/07/17 00:01:48;;;;;;;;;18.00;14.00;;;;;18.34;59.05;102094.28;5033690;28;45466;-72
2021/07/17 00:04:13;;;;;;;;;13.00;12.00;;;;;18.31;59.04;102082.94;5032812;28;45398;-72
2021/07/17 00:06:39;;;;;;;;;18.25;15.50;;;;;18.27;59.41;102091.88;5032702;28;45343;-72
2021/07/17 00:09:08;;;;;;;;;14.25;14.00;;;;;18.22;59.30;102092.88;5035694;28;49268;-72
2021/07/17 00:11:34;;;;;;;;;17.50;14.50;;;;;18.16;59.73;102093.09;5032324;28;46309;-72
2021/07/17 00:13:59;;;;;;;;;16.50;14.25;;;;;18.13;59.51;102092.28;5032592;28;45638;-72
2021/07/17 00:16:27;;;;;;;;;17.00;16.50;;;;;18.10;59.77;102097.69;5033634;28;45787;-72
2021/07/17 00:18:57;;;;;;;;;14.25;12.75;;;;;18.06;59.96;102096.91;5032265;28;45413;-71
2021/07/17 00:21:22;;;;;;;;;16.25;14.00;;;;;18.03;59.73;102102.31;5030624;28;45691;-72
2021/07/17 00:23:48;;;;;;;;;16.50;13.50;;;;;18.00;60.24;102100.63;5030286;28;45458;-72
2021/07/17 00:26:14;;;;;;;;;20.50;16.00;;;;;17.98;60.14;102096.28;5032351;28;45356;-72
2021/07/17 00:28:39;;;;;;;;;15.75;15.75;;;;;17.94;60.28;102098.13;5034276;28;45415;-72
2021/07/17 00:31:05;;;;;;;;;15.00;14.00;;;;;17.92;60.29;102101.75;5031385;28;45982;-72
2021/07/17 00:33:30;;;;;;;;;17.50;14.75;;;;;17.88;60.49;102090.38;5032087;28;45521;-71
2021/07/17 00:35:55;;;;;;;;;17.75;15.50;;;;;17.86;60.83;102097.50;5031994;28;45573;-72
2021/07/17 00:38:20;;;;;;;;;19.00;16.00;;;;;17.83;60.63;102098.47;5031932;28;45336;-70
2021/07/17 00:40:46;;;;;;;;;21.25;13.50;;;;;17.81;61.11;102102.94;5034043;28;47018;-72
2021/07/17 00:43:11;;;;;;;;;16.00;14.25;;;;;17.79;60.86;102103.84;5032052;28;45387;-72
2021/07/17 00:45:37;;;;;;;;;18.75;18.25;;;;;17.77;61.01;102097.72;5033495;28;45436;-71
2021/07/17 00:48:02;;;;;;;;;18.25;15.25;;;;;17.73;61.37;102098.72;5035430;28;45442;-72
2021/07/17 00:50:27;;;;;;;;;19.00;16.75;;;;;17.71;61.41;102093.50;5035049;28;47205;-71
2021/07/17 00:52:53;;;;;;;;;14.25;14.25;;;;;17.68;61.38;102098.84;5036694;28;45357;-72
2021/07/17 00:55:21;;;;;;;;;13.50;12.50;;;;;17.65;61.33;102101.59;5036012;28;45315;-71
2021/07/17 00:57:49;;;;;;;;;17.50;15.75;;;;;17.64;61.35;102097.22;5017178;28;45653;-73
2021/07/17 01:00:16;;;;;;;;;19.50;18.25;;;;;17.62;61.61;102112.28;5033271;28;47035;-72
2021/07/17 01:03:08;;;;;;;;;20.25;16.00;;;;;17.60;61.75;102108.81;5034160;28;45478;-71
2021/07/17 01:05:34;;;;;;;;;15.25;14.50;;;;;17.57;61.98;102101.81;5022537;28;45277;-72
2021/07/17 01:08:00;;;;;;;;;18.00;15.25;;;;;17.55;61.84;102106.28;5035667;28;45361;-72
2021/07/17 01:10:26;;;;;;;;;16.00;15.00;;;;;17.55;61.99;102105.41;5036580;28;45941;-72
2021/07/17 01:12:52;;;;;;;;;21.00;17.00;;;;;17.54;62.10;102103.66;5035367;28;45500;-71
2021/07/17 01:15:18;;;;;;;;;16.00;15.00;;;;;17.53;62.06;102107.22;5045346;28;45442;-72
2021/07/17 01:17:44;;;;;;;;;14.25;14.25;;;;;17.49;61.97;102100.28;5035394;28;45403;-74
2021/07/17 01:20:13;;;;;;;;;17.50;15.50;;;;;17.46;62.37;102098.59;5034592;28;46132;-72
2021/07/17 01:22:39;;;;;;;;;18.00;15.50;;;;;17.44;62.73;102096.91;5036866;28;45511;-72
2021/07/17 01:25:11;;;;;;;;;18.00;18.00;;;;;17.42;62.56;102104.88;5034716;28;45598;-72
2021/07/17 01:27:38;;;;;;;;;14.75;13.75;;;;;17.39;62.54;102099.66;5034247;28;45454;-74
2021/07/17 01:30:09;;;;;;;;;17.25;15.25;;;;;17.39;62.65;102097.88;5034554;28;47345;-72
2021/07/17 01:32:34;;;;;;;;;15.25;13.75;;;;;17.37;62.60;102098.81;5034410;28;45401;-73
2021/07/17 01:34:59;;;;;;;;;19.25;15.75;;;;;17.36;62.86;102094.47;5035040;28;45298;-73
2021/07/17 01:37:25;;;;;;;;;19.50;16.75;;;;;17.34;62.77;102091.84;5036900;28;45284;-71
2021/07/17 01:39:50;;;;;;;;;17.25;15.50;;;;;17.32;62.81;102091.00;5033634;28;46865;-73
2021/07/17 01:42:16;;;;;;;;;22.25;16.75;;;;;17.30;62.96;102082.25;5033709;28;45404;-73
2021/07/17 01:44:45;;;;;;;;;16.25;16.25;;;;;17.29;63.42;102087.59;5035317;28;45499;-73
2021/07/17 01:47:14;;;;;;;;;20.50;16.25;;;;;17.26;62.91;102092.97;5035731;28;45672;-73
2021/07/17 01:49:41;;;;;;;;;22.50;16.50;;;;;17.24;63.21;102086.84;5037110;28;46070;-74
2021/07/17 01:52:08;;;;;;;;;18.00;15.00;;;;;17.21;63.37;102079.88;5035017;28;45364;-74
2021/07/17 01:54:34;;;;;;;;;18.75;16.75;;;;;17.16;63.61;102085.28;5035470;28;45384;-73
2021/07/17 01:57:00;;;;;;;;;17.25;16.00;;;;;17.14;63.72;102086.22;5033566;28;45468;-73
2021/07/17 01:59:26;;;;;;;;;18.50;15.50;;;;;17.12;63.75;102085.41;5034832;28;46474;-72
2021/07/17 02:01:51;;;;;;;;;18.00;16.75;;;;;17.09;63.87;102090.75;5051858;28;45387;-73
2021/07/17 02:04:16;;;;;;;;;17.25;17.00;;;;;17.05;63.83;102086.47;5035727;28;46643;-74
2021/07/17 02:06:42;;;;;;;;;18.50;17.25;;;;;17.01;63.80;102087.44;5035206;28;45492;-73
2021/07/17 02:09:07;;;;;;;;;14.25;13.50;;;;;16.97;64.12;102087.53;5034726;28;51306;-73
2021/07/17 02:11:32;;;;;;;;;21.00;18.75;;;;;16.96;64.25;102088.41;5033316;28;45465;-73
2021/07/17 02:13:58;;;;;;;;;22.00;17.50;;;;;16.95;64.38;102089.34;5035778;28;45383;-74
2021/07/17 02:16:23;;;;;;;;;21.00;17.75;;;;;16.94;64.43;102094.66;5036271;28;45589;-73
2021/07/17 02:18:49;;;;;;;;;21.00;15.25;;;;;16.92;64.34;102088.53;5033048;28;46147;-74
2021/07/17 02:21:15;;;;;;;;;21.25;19.25;;;;;16.90;64.49;102085.06;5033194;28;45582;-73
2021/07/17 02:23:41;;;;;;;;;15.25;13.75;;;;;16.88;64.67;102087.75;5034886;28;45465;-73
2021/07/17 02:26:07;;;;;;;;;18.00;13.00;;;;;16.88;64.60;102079.81;5034435;28;45222;-73
2021/07/17 02:28:33;;;;;;;;;24.00;18.00;;;;;16.87;64.63;102085.13;5036247;28;45394;-73
2021/07/17 02:30:58;;;;;;;;;22.75;21.00;;;;;16.87;64.58;102079.84;5034238;28;48204;-73
2021/07/17 02:33:23;;;;;;;;;18.50;15.50;;;;;16.85;64.88;102079.00;5034782;28;45593;-74
2021/07/17 02:35:49;;;;;;;;;24.25;20.75;;;;;16.82;64.87;102081.75;5034625;28;45311;-71
2021/07/17 02:38:16;;;;;;;;;18.00;16.50;;;;;16.81;65.08;102080.88;5034275;28;46421;-73
2021/07/17 02:40:42;;;;;;;;;18.75;16.75;;;;;16.79;65.23;102077.41;5036224;28;45406;-73
2021/07/17 02:43:07;;;;;;;;;15.25;13.00;;;;;16.77;65.05;102082.69;5034420;28;45449;-72
2021/07/17 02:45:33;;;;;;;;;22.25;18.25;;;;;16.76;65.14;102090.69;5034334;28;45515;-73
2021/07/17 02:47:58;;;;;;;;;29.00;19.00;;;;;16.74;65.39;102076.63;5033895;28;46838;-73
2021/07/17 02:50:24;;;;;;;;;22.00;17.50;;;;;16.73;65.32;102088.09;5033946;28;45490;-74
2021/07/17 02:52:49;;;;;;;;;20.75;20.25;;;;;16.72;65.56;102075.78;5035943;28;45362;-73
2021/07/17 02:55:15;;;;;;;;;20.00;17.75;;;;;16.71;65.41;102084.63;5034243;28;45573;-73
2021/07/17 02:57:41;;;;;;;;;25.00;20.00;;;;;16.72;65.72;102078.44;5031854;28;45411;-73
2021/07/17 03:00:10;;;;;;;;;24.00;20.25;;;;;16.71;65.56;102074.06;5032122;28;45323;-73
2021/07/17 03:02:35;;;;;;;;;21.25;19.75;;;;;16.70;65.60;102078.44;5034203;28;45337;-74
2021/07/17 03:05:01;;;;;;;;;19.50;19.00;;;;;16.69;65.71;102075.88;5034414;28;45416;-73
2021/07/17 03:07:26;;;;;;;;;19.50;18.00;;;;;16.67;65.72;102082.97;5035334;28;47118;-74
2021/07/17 03:09:52;;;;;;;;;20.00;20.00;;;;;16.65;65.91;102079.47;5033572;28;45415;-73
2021/07/17 03:12:17;;;;;;;;;21.50;19.75;;;;;16.62;65.79;102079.56;5033660;28;45405;-73
2021/07/17 03:14:42;;;;;;;;;26.25;19.00;;;;;16.60;66.03;102076.09;5033885;28;45494;-72
2021/07/17 03:17:08;;;;;;;;;22.00;17.75;;;;;16.58;65.84;102083.19;5033904;28;46283;-72
2021/07/17 03:19:33;;;;;;;;;17.75;16.75;;;;;16.55;66.09;102092.91;5035950;28;45395;-73
2021/07/17 03:21:59;;;;;;;;;30.00;25.25;;;;;16.53;66.00;102081.50;5033693;28;45476;-73
2021/07/17 03:24:24;;;;;;;;;23.00;20.25;;;;;16.52;66.06;102079.78;5033194;28;45520;-72
2021/07/17 03:26:50;;;;;;;;;27.25;19.75;;;;;16.53;66.35;102089.44;5033718;28;45642;-73
2021/07/17 03:29:15;;;;;;;;;17.25;15.25;;;;;16.54;66.05;102082.38;5033804;28;45463;-72
2021/07/17 03:31:40;;;;;;;;;30.00;21.75;;;;;16.54;66.19;102079.72;5035980;28;45297;-72
2021/07/17 03:34:06;;;;;;;;;22.00;17.25;;;;;16.54;66.28;102082.38;5033759;28;45366;-73
2021/07/17 03:36:31;;;;;;;;;19.75;18.50;;;;;16.50;66.11;102084.22;5031869;28;46095;-73
2021/07/17 03:38:57;;;;;;;;;28.00;26.00;;;;;16.48;66.47;102078.09;5031710;28;45466;-73
2021/07/17 03:41:23;;;;;;;;;23.50;21.25;;;;;16.46;66.09;102084.34;5033412;28;46248;-73
2021/07/17 03:43:49;;;;;;;;;21.75;20.75;;;;;16.42;66.35;102077.38;5035012;28;45443;-73
2021/07/17 03:46:14;;;;;;;;;18.25;17.50;;;;;16.39;66.53;102078.31;5033536;28;47100;-72
2021/07/17 03:48:40;;;;;;;;;20.50;19.25;;;;;16.37;66.30;102082.75;5033052;28;45577;-72
2021/07/17 03:51:06;;;;;;;;;24.00;21.50;;;;;16.34;66.63;102086.34;5033057;28;47229;-73
2021/07/17 03:53:32;;;;;;;;;20.25;20.00;;;;;16.33;66.85;102076.69;5032925;28;45548;-73
2021/07/17 03:55:57;;;;;;;;;22.00;19.50;;;;;16.34;66.54;102085.47;5033727;28;45454;-72
2021/07/17 03:58:23;;;;;;;;;13.50;13.50;;;;;16.35;66.81;102085.47;5034554;28;45498;-72
2021/07/17 04:00:49;;;;;;;;;23.75;20.00;;;;;16.38;66.95;102083.66;5033134;28;45592;-72
2021/07/17 04:03:14;;;;;;;;;19.00;18.25;;;;;16.41;66.84;102086.22;5033232;28;45416;-72
2021/07/17 04:05:40;;;;;;;;;23.00;19.75;;;;;16.44;66.95;102088.78;5033346;28;45368;-73
2021/07/17 04:08:05;;;;;;;;;32.50;27.25;;;;;16.44;66.91;102097.56;5032904;28;45504;-73
2021/07/17 04:10:31;;;;;;;;;21.50;17.75;;;;;16.41;66.74;102097.66;5034570;28;45406;-72
2021/07/17 04:12:57;;;;;;;;;18.25;16.75;;;;;16.40;66.80;102092.38;5032485;28;45459;-73
2021/07/17 04:15:22;;;;;;;;;24.75;19.75;;;;;16.40;66.77;102090.63;5030942;28;46301;-73
2021/07/17 04:17:47;;;;;;;;;21.50;18.75;;;;;16.39;66.97;102096.81;5027347;28;45490;-73
2021/07/17 04:20:13;;;;;;;;;23.00;19.00;;;;;16.39;66.91;102094.16;5031882;28;45228;-73
2021/07/17 04:22:38;;;;;;;;;20.50;18.25;;;;;16.40;66.92;102101.22;5034621;28;45847;-73
2021/07/17 04:25:05;;;;;;;;;23.25;19.00;;;;;16.40;66.96;102095.03;5032180;28;46957;-72
2021/07/17 04:27:31;;;;;;;;;23.00;20.75;;;;;16.44;67.21;102102.00;5032436;28;45310;-72
2021/07/17 04:29:57;;;;;;;;;23.75;22.75;;;;;16.46;67.18;102095.78;5032139;28;45363;-72
2021/07/17 04:32:22;;;;;;;;;20.00;20.00;;;;;16.50;66.46;102100.09;5032713;28;45378;-73
2021/07/17 04:34:47;;;;;;;;;24.50;20.00;;;;;16.54;66.75;102101.75;5034840;28;45417;-72
2021/07/17 04:37:15;;;;;;;;;24.25;18.75;;;;;16.58;66.88;102096.41;5032037;28;45516;-73
2021/07/17 04:39:40;;;;;;;;;22.75;20.00;;;;;16.60;66.63;102086.66;5027940;28;45345;-73
2021/07/17 04:42:05;;;;;;;;;20.75;17.00;;;;;16.64;66.59;102093.63;5032104;28;45484;-73
2021/07/17 04:44:31;;;;;;;;;20.50;19.50;;;;;16.68;66.45;102089.97;5031799;28;47077;-73
2021/07/17 04:46:56;;;;;;;;;21.00;17.50;;;;;16.71;66.28;102096.06;5032973;28;45302;-73
2021/07/17 04:49:21;;;;;;;;;29.00;27.00;;;;;16.75;66.35;102097.72;5033213;28;45272;-72
2021/07/17 04:51:47;;;;;;;;;23.00;19.00;;;;;16.79;66.34;102101.19;5031788;28;45450;-73
2021/07/17 04:54:12;;;;;;;;;21.25;17.00;;;;;16.82;66.20;102103.75;5030244;28;45514;-74
2021/07/17 04:56:38;;;;;;;;;18.50;17.25;;;;;16.85;66.07;102100.16;5030885;28;45510;-72
2021/07/17 04:59:03;;;;;;;;;26.25;21.75;;;;;16.85;66.08;102106.34;5032573;28;45343;-73
2021/07/17 05:01:28;;;;;;;;;20.25;17.25;;;;;16.87;65.84;102114.22;5034793;28;45353;-73
2021/07/17 05:03:54;;;;;;;;;22.25;21.25;;;;;16.89;66.23;102110.63;5034612;28;46008;-73
2021/07/17 05:06:19;;;;;;;;;23.00;19.50;;;;;16.92;66.03;102110.59;5035604;28;45550;-73
2021/07/17 05:08:44;;;;;;;;;24.25;19.75;;;;;16.94;65.76;102111.38;5038826;28;45902;-71
2021/07/17 05:11:10;;;;;;;;;19.50;17.75;;;;;16.95;65.67;102112.28;5035904;28;45514;-72
2021/07/17 05:13:35;;;;;;;;;25.25;20.75;;;;;16.96;65.73;102121.94;5035495;28;45299;-72
2021/07/17 05:16:00;;;;;;;;;25.00;21.75;;;;;16.95;65.74;102121.09;5032060;28;45355;-73
2021/07/17 05:18:26;;;;;;;;;23.25;19.75;;;;;16.96;65.80;102120.16;5032432;28;45357;-73
2021/07/17 05:20:51;;;;;;;;;21.75;19.25;;;;;17.00;65.78;102114.81;5032175;28;45525;-73
2021/07/17 05:23:16;;;;;;;;;23.00;18.25;;;;;17.04;65.70;102119.09;5032139;28;46133;-73
2021/07/17 05:25:43;;;;;;;;;22.00;18.50;;;;;17.09;65.79;102118.09;5034352;28;45637;-73
2021/07/17 05:28:09;;;;;;;;;20.25;18.25;;;;;17.14;65.52;102118.84;5032073;28;45473;-73
2021/07/17 05:30:34;;;;;;;;;26.50;21.75;;;;;17.20;65.40;102116.03;5041298;28;45517;-73
2021/07/17 05:33:00;;;;;;;;;22.00;21.00;;;;;17.28;65.50;102117.59;5032879;28;47667;-72
2021/07/17 05:35:28;;;;;;;;;26.25;19.50;;;;;17.31;65.05;102125.47;5033786;28;45480;-73
2021/07/17 05:37:56;;;;;;;;;23.00;20.50;;;;;17.32;64.78;102114.84;5036286;28;45323;-72
2021/07/17 05:40:21;;;;;;;;;24.00;21.50;;;;;17.33;65.09;102107.78;5035690;28;45307;-73
2021/07/17 05:42:46;;;;;;;;;20.50;18.50;;;;;17.31;64.88;102102.53;5034468;28;45421;-72
2021/07/17 05:45:12;;;;;;;;;25.50;22.75;;;;;17.30;64.95;102110.50;5034651;28;45309;-72
2021/07/17 05:47:37;;;;;;;;;20.25;17.75;;;;;17.29;65.04;102112.28;5034738;28;45767;-72
2021/07/17 05:50:03;;;;;;;;;22.00;19.00;;;;;17.31;64.97;102102.53;5034478;28;45500;-73
2021/07/17 05:52:29;;;;;;;;;27.00;18.50;;;;;17.34;65.05;102106.88;5036514;28;47193;-72
2021/07/17 05:54:54;;;;;;;;;26.25;19.00;;;;;17.35;65.07;102112.13;5034179;28;45458;-73
2021/07/17 05:57:20;;;;;;;;;33.75;27.75;;;;;17.38;65.09;102114.69;5034348;28;45487;-73
2021/07/17 05:59:45;;;;;;;;;25.75;23.75;;;;;17.40;64.95;102112.88;5034756;28;45464;-73
2021/07/17 06:02:10;;;;;;;;;23.75;23.25;;;;;17.45;65.18;102112.75;5034764;28;46088;-73
2021/07/17 06:04:35;;;;;;;;;24.25;20.50;;;;;17.52;64.99;102116.06;5035918;28;45418;-73
2021/07/17 06:07:01;;;;;;;;;24.75;21.25;;;;;17.61;65.05;102121.13;5034357;28;45480;-73
2021/07/17 06:09:26;;;;;;;;;31.00;21.25;;;;;17.68;64.68;102120.03;5034622;28;45233;-72
2021/07/17 06:11:52;;;;;;;;;28.00;23.00;;;;;17.75;64.61;102121.59;5032357;28;45872;-73
2021/07/17 06:14:17;;;;;;;;;26.25;22.75;;;;;17.83;64.51;102118.78;5033253;28;45367;-72
2021/07/17 06:16:43;;;;;;;;;25.00;24.00;;;;;17.90;64.42;102115.06;5035130;28;45269;-72
2021/07/17 06:19:09;;;;;;;;;26.25;23.50;;;;;18.01;64.12;102114.72;5034029;28;45310;-72
2021/07/17 06:21:34;;;;;;;;;26.75;24.00;;;;;18.09;64.01;102112.75;5034167;28;46083;-73
2021/07/17 06:24:00;;;;;;;;;27.25;24.50;;;;;18.15;64.00;102111.66;5034158;28;45372;-73
2021/07/17 06:26:25;;;;;;;;;32.50;26.75;;;;;18.20;63.54;102117.69;5034290;28;45518;-73
2021/07/17 06:28:51;;;;;;;;;28.00;24.50;;;;;18.20;63.87;102117.69;5035094;28;45325;-73
2021/07/17 06:31:19;;;;;;;;;28.00;24.75;;;;;18.25;63.56;102116.63;5034795;28;45701;-73
2021/07/17 06:33:45;;;;;;;;;29.75;27.25;;;;;18.33;63.73;102118.19;5033192;28;45470;-73
2021/07/17 06:36:11;;;;;;;;;33.00;25.00;;;;;18.45;63.51;102120.47;5033522;28;45534;-73
2021/07/17 06:38:36;;;;;;;;;30.25;27.75;;;;;18.53;63.48;102126.41;5033737;28;45364;-72
2021/07/17 06:41:02;;;;;;;;;32.25;28.25;;;;;18.62;63.15;102123.47;5033982;28;48297;-73
2021/07/17 06:43:28;;;;;;;;;38.75;27.75;;;;;18.73;63.20;102131.06;5035122;28;45380;-73
2021/07/17 06:45:53;;;;;;;;;34.75;26.25;;;;;18.83;62.89;102131.66;5034210;28;45451;-73
2021/07/17 06:48:19;;;;;;;;;29.25;26.75;;;;;18.92;63.00;102130.50;5033222;28;45349;-73
2021/07/17 06:50:44;;;;;;;;;31.50;27.25;;;;;18.97;62.21;102129.41;5032360;28;45609;-73
2021/07/17 06:53:09;;;;;;;;;33.00;30.50;;;;;19.03;62.47;102134.53;5034237;28;45518;-73
2021/07/17 06:55:35;;;;;;;;;23.00;21.00;;;;;19.06;62.42;102133.56;5035033;28;45403;-73
2021/07/17 06:58:00;;;;;;;;;32.00;29.25;;;;;19.10;61.96;102133.41;5033758;28;45488;-73
2021/07/17 07:00:26;;;;;;;;;33.50;27.50;;;;;19.20;62.08;102133.09;5033250;28;46291;-73
2021/07/17 07:02:51;;;;;;;;;31.25;27.00;;;;;19.28;62.04;102134.59;5033121;28;45571;-73
2021/07/17 07:05:17;;;;;;;;;32.50;28.75;;;;;19.40;61.80;102140.38;5034358;28;45375;-73
2021/07/17 07:07:42;;;;;;;;;29.50;26.75;;;;;19.51;61.47;102140.88;5036262;28;45542;-73
2021/07/17 07:10:08;;;;;;;;;31.50;28.25;;;;;19.55;61.17;102146.97;5033997;28;46031;-73
2021/07/17 07:12:38;;;;;;;;;28.25;23.50;;;;;19.60;61.21;102137.03;5033478;28;45469;-73
2021/07/17 07:15:09;;;;;;;;;28.00;24.50;;;;;19.69;61.03;102137.59;5033176;28;45568;-73
2021/07/17 07:17:35;;;;;;;;;29.50;26.75;;;;;19.81;61.16;102138.94;5033285;28;45477;-73
2021/07/17 07:20:00;;;;;;;;;32.25;25.00;;;;;19.93;60.77;102137.63;5033747;28;46189;-73
2021/07/17 07:22:26;;;;;;;;;27.50;25.25;;;;;20.01;60.62;102142.66;5035033;28;45483;-73
2021/07/17 07:24:52;;;;;;;;;34.25;30.75;;;;;20.08;60.36;102144.16;5033236;28;45515;-73
2021/07/17 07:27:17;;;;;;;;;23.50;22.50;;;;;20.09;59.94;102151.19;5032699;28;45264;-73
2021/07/17 07:29:42;;;;;;;;;30.00;28.50;;;;;20.09;60.18;102151.19;5031783;28;45420;-74
2021/07/17 07:32:08;;;;;;;;;33.50;30.00;;;;;20.13;60.24;102156.34;5032991;28;45555;-72
2021/07/17 07:34:33;;;;;;;;;24.25;22.25;;;;;20.20;60.08;102162.28;5033443;28;45297;-72
2021/07/17 07:36:58;;;;;;;;;28.25;23.75;;;;;20.32;59.73;102164.47;5032666;28;45459;-72
2021/07/17 07:39:24;;;;;;;;;30.75;27.75;;;;;20.45;59.37;102159.56;5032467;28;46941;-72
2021/07/17 07:41:49;;;;;;;;;25.50;24.75;;;;;20.52;59.46;102154.84;5032587;28;45485;-72
2021/07/17 07:44:15;;;;;;;;;27.75;26.50;;;;;20.47;59.56;102165.66;5032615;28;46087;-72
2021/07/17 07:46:40;;;;;;;;;20.75;20.50;;;;;20.48;59.14;102155.91;5034174;28;45557;-73
2021/07/17 07:49:06;;;;;;;;;30.50;26.00;;;;;20.51;59.48;102164.63;5047954;28;48057;-73
2021/07/17 07:51:32;;;;;;;;;25.50;23.50;;;;;20.51;59.04;102166.44;5032617;28;45514;-73
2021/07/17 07:53:57;;;;;;;;;28.75;25.25;;;;;20.54;59.28;102168.97;5032082;28;45502;-72
2021/07/17 07:56:23;;;;;;;;;27.25;22.50;;;;;20.58;59.25;102167.97;5032761;28;45394;-72
2021/07/17 07:58:48;;;;;;;;;28.25;26.75;;;;;20.67;58.92;102172.91;5034441;28;45553;-73
2021/07/17 08:01:14;;;;;;;;;30.50;29.25;;;;;20.76;58.93;102166.34;5032161;28;45467;-72
2021/07/17 08:03:39;;;;;;;;;31.50;26.75;;;;;20.79;58.63;102167.09;5032059;28;45499;-72
2021/07/17 08:06:05;;;;;;;;;30.50;26.75;;;;;20.83;58.20;102170.50;5032749;28;45356;-72
2021/07/17 08:08:30;;;;;;;;;30.00;26.00;;;;;20.85;58.26;102175.75;5030792;28;45523;-72
2021/07/17 08:10:56;;;;;;;;;30.75;28.25;;;;;20.96;58.18;102174.41;5033570;28;45433;-73
2021/07/17 08:13:21;;;;;;;;;28.50;23.00;;;;;21.10;58.20;102180.97;5032152;28;45499;-73
2021/07/17 08:15:47;;;;;;;;;33.25;26.75;;;;;21.21;57.98;102168.03;5031775;28;45401;-72
2021/07/17 08:18:12;;;;;;;;;27.75;27.00;;;;;21.40;57.43;102170.81;5030651;28;45498;-72
2021/07/17 08:20:40;;;;;;;;;31.00;26.25;;;;;21.55;57.02;102172.84;5032605;28;45315;-73
2021/07/17 08:23:06;;;;;;;;;33.25;25.50;;;;;21.67;56.86;102170.59;5032960;28;45493;-74
2021/07/17 08:25:31;;;;;;;;;28.75;25.50;;;;;21.77;56.52;102172.75;5029739;28;45763;-75
2021/07/17 08:27:57;;;;;;;;;29.50;26.50;;;;;21.92;56.46;102170.34;5029156;28;45343;-75
2021/07/17 08:30:22;;;;;;;;;29.75;26.00;;;;;22.14;56.04;102172.88;5032019;28;49617;-75
2021/07/17 08:32:47;;;;;;;;;28.75;25.25;;;;;22.34;55.67;102159.53;5030206;28;45569;-75
2021/07/17 08:35:13;;;;;;;;;28.50;25.50;;;;;22.50;55.15;102154.34;5032145;28;45522;-74
2021/07/17 08:37:39;;;;;;;;;33.25;30.25;;;;;22.63;54.91;102158.13;5033542;28;46794;-74
2021/07/17 08:40:07;;;;;;;;;28.00;23.75;;;;;22.75;54.57;102162.00;5031832;28;45455;-77
2021/07/17 08:42:41;;;;;;;;;30.00;26.75;;;;;22.81;54.45;102166.16;5031583;28;45534;-77
2021/07/17 08:45:08;;;;;;;;;35.25;29.50;;;;;22.93;54.22;102165.59;5033029;28;45541;-75
2021/07/17 08:47:39;;;;;;;;;34.00;26.50;;;;;23.02;54.17;102162.47;5030503;28;45485;-76
2021/07/17 08:50:06;;;;;;;;;28.75;26.25;;;;;23.07;53.70;102160.47;5031149;28;45501;-75
2021/07/17 08:52:34;;;;;;;;;31.75;28.25;;;;;23.09;53.29;102153.19;5034307;28;45417;-75
2021/07/17 08:55:04;;;;;;;;;21.00;20.25;;;;;23.21;53.62;102161.53;5032413;28;45356;-76
2021/07/17 08:57:37;;;;;;;;;28.50;25.50;;;;;23.35;53.01;102160.84;5031181;28;46672;-74
2021/07/17 09:00:09;;;;;;;;;29.75;25.00;;;;;23.47;52.43;102168.22;5031195;28;45370;-73
2021/07/17 09:02:39;;;;;;;;;28.75;26.50;;;;;23.50;52.76;102165.38;5031958;28;45498;-75
2021/07/17 09:05:07;;;;;;;;;24.75;23.50;;;;;23.65;52.65;102161.06;5031754;28;45386;-74
2021/07/17 09:07:32;;;;;;;;;28.50;25.00;;;;;23.81;52.28;102153.09;5037255;28;47231;-74
2021/07/17 09:09:57;;;;;;;;;29.75;27.50;;;;;23.92;51.66;102162.28;5035252;28;45407;-75
2021/07/17 09:12:25;;;;;;;;;25.00;22.50;;;;;24.11;51.26;102155.94;5035126;28;45432;-75
2021/07/17 09:14:51;;;;;;;;;30.75;27.75;;;;;24.26;51.30;102154.22;5034711;28;45898;-75
2021/07/17 09:17:27;;;;;;;;;24.50;23.00;;;;;24.36;50.93;102150.97;5018901;28;46649;-75
2021/07/17 09:19:59;;;;;;;;;37.00;32.50;;;;;24.50;50.72;102152.00;5032859;28;45367;-75
2021/07/17 09:22:36;;;;;;;;;30.25;28.75;;;;;24.72;49.97;102149.84;5036139;28;45336;-75
2021/07/17 09:25:06;;;;;;;;;25.25;24.50;;;;;24.85;49.79;102152.69;5034701;28;45405;-76
2021/07/17 09:27:32;;;;;;;;;49.50;36.25;;;;;24.92;49.14;102153.19;5032699;28;46378;-76
2021/07/17 09:29:57;;;;;;;;;30.75;26.25;;;;;24.91;49.41;102146.13;5032796;28;45489;-76
2021/07/17 09:32:23;;;;;;;;;26.75;24.25;;;;;24.98;48.70;102136.78;5034468;28;45538;-76
2021/07/17 09:34:49;;;;;;;;;73.25;56.00;;;;;25.07;48.92;102146.91;5036737;28;45525;-75
2021/07/17 09:37:15;;;;;;;;;30.00;27.00;;;;;25.16;48.69;102142.84;5034480;28;46096;-75
2021/07/17 09:39:45;;;;;;;;;27.25;23.25;;;;;25.25;48.73;102138.78;5030685;28;45575;-74
2021/07/17 09:42:21;;;;;;;;;30.25;26.25;;;;;25.46;48.21;102150.00;5031777;28;45533;-72
2021/07/17 09:44:52;;;;;;;;;30.25;25.75;;;;;25.72;47.95;102138.56;5036380;28;45521;-74
2021/07/17 09:47:21;;;;;;;;;26.25;22.25;;;;;25.95;47.30;102131.78;5034974;28;46616;-76
2021/07/17 09:49:47;;;;;;;;;26.50;26.50;;;;;26.17;46.41;102146.50;5033532;28;45474;-77
2021/07/17 09:52:14;;;;;;;;;26.00;20.00;;;;;26.20;46.39;102141.81;5050166;28;45262;-77
2021/07/17 09:55:00;;;;;;;;;31.00;26.50;;;;;26.27;46.28;102142.28;5035539;28;46694;-77
2021/07/17 09:57:36;;;;;;;;;25.00;22.25;;;;;26.45;45.71;102140.22;5035151;28;46376;-75
2021/07/17 10:00:14;;;;;;;;;33.50;27.75;;;;;26.56;45.41;102142.25;5035251;28;45824;-75
2021/07/17 10:02:40;;;;;;;;;26.25;22.00;;;;;26.59;45.11;102129.47;5035855;28;45414;-75
2021/07/17 10:05:14;;;;;;;;;24.00;22.25;;;;;26.65;45.30;102139.81;5036337;28;45296;-76
2021/07/17 10:07:41;;;;;;;;;29.25;24.25;;;;;26.75;44.95;102140.06;5036432;28;45444;-75
2021/07/17 10:10:08;;;;;;;;;27.00;27.00;;;;;26.76;44.54;102141.78;5033704;28;45327;-76
2021/07/17 10:12:44;;;;;;;;;30.25;28.25;;;;;26.78;44.04;102136.31;5035362;28;45359;-75
2021/07/17 10:15:14;;;;;;;;;28.50;24.00;;;;;26.78;44.39;102142.53;5034244;28;45323;-74
2021/07/17 10:17:44;;;;;;;;;24.25;21.50;;;;;26.76;43.95;102138.25;5032523;28;46449;-73
2021/07/17 10:20:15;;;;;;;;;26.50;22.50;;;;;26.72;44.39;102134.91;5032551;28;45853;-76
2021/07/17 10:22:42;;;;;;;;;24.50;23.50;;;;;26.71;44.65;102143.91;5035894;28;45319;-74
2021/07/17 10:25:11;;;;;;;;;29.75;24.00;;;;;26.66;44.56;102133.47;5032783;28;45457;-74
2021/07/17 10:27:38;;;;;;;;;33.75;23.75;;;;;26.47;44.05;102144.53;5033414;28;46254;-73
2021/07/17 10:30:05;;;;;;;;;30.50;25.00;;;;;26.23;44.45;102138.94;5033559;28;45491;-70
2021/07/17 10:32:32;;;;;;;;;27.25;25.00;;;;;26.06;44.75;102131.97;5033512;28;45307;-71
2021/07/17 10:34:57;;;;;;;;;21.00;19.75;;;;;25.98;44.78;102138.75;5034867;28;45518;-71
2021/07/17 10:37:28;;;;;;;;;20.00;20.00;;;;;25.91;45.54;102146.38;5028468;28;46320;-72
2021/07/17 10:40:22;;;;;;;;;28.25;26.25;;;;;25.90;45.43;102141.09;5030555;28;45441;-73
2021/07/17 10:42:54;;;;;;;;;19.00;17.75;;;;;25.80;45.29;102144.31;5029895;28;45542;-71
2021/07/17 10:45:37;;;;;;;;;28.25;23.50;;;;;25.77;45.29;102136.47;5031759;28;45407;-77
2021/07/17 10:48:03;;;;;;;;;40.25;34.25;;;;;25.82;45.56;102141.53;5027106;28;46101;-74
2021/07/17 10:50:34;;;;;;;;;40.50;31.50;;;;;25.80;45.36;102140.78;5032305;28;45295;-75
2021/07/17 10:53:00;;;;;;;;;26.75;22.75;;;;;25.72;45.45;102138.56;5032844;28;45441;-73
2021/07/17 10:55:30;;;;;;;;;23.75;23.25;;;;;25.61;45.40;102135.69;5033428;28;45367;-71
2021/07/17 10:58:01;;;;;;;;;31.25;25.75;;;;;25.56;45.71;102133.28;5026649;28;45321;-74
2021/07/17 11:00:42;;;;;;;;;18.75;18.75;;;;;25.52;45.69;102130.88;5032936;28;45455;-68
2021/07/17 11:03:13;;;;;;;;;26.25;22.50;;;;;25.52;45.78;102125.50;5033123;28;45658;-68
2021/07/17 11:05:38;;;;;;;;;27.75;24.75;;;;;25.60;45.99;102131.28;5032751;28;45226;-70
2021/07/17 11:08:04;;;;;;;;;20.50;19.25;;;;;25.75;45.57;102133.00;5032782;28;48915;-70